Crash-aerien 22 FEB 2023 d'un Beechcraft B200 Super King Air N55PC - Little Rock-Bill and Hillary Clinton National Airport, AR (LIT)
ASN logo
 

Statuts:Information is only available from news, social media or unofficial sources
Date:mercredi 22 fvrier 2023
Heure:11:57
Type/Sous-type:Silhouette image of generic BE20 model; specific model in this crash may look slightly different
Beechcraft B200 Super King Air
Compagnie:CTEH
Immatriculation: N55PC
Numéro de série: BB-1170
Année de Fabrication: 1983
Moteurs: 2 Pratt & Whitney Canada PT6A-60A
Equipage:victimes: / à bord:
Passagers:victimes: / à bord:
Total:victimes: 5 / à bord: 5
Dégats de l'appareil: Détruit
Conséquences: Written off (damaged beyond repair)
Lieu de l'accident:1,5 km (0.9 milles) S of Little Rock-Bill and Hillary Clinton National Airport, AR (LIT) (   Etats-Unis d'Amérique)
Phase de vol: En montée initiale (ICL)
Nature:Inconnu
Aéroport de départ:Little Rock-Bill and Hillary Clinton National Airport, AR (LIT/KLIT), Etats-Unis d'Amérique
Aéroport de destination:Columbus-John Glenn International Airport, OH (CMH/KCMH), Etats-Unis d'Amérique
Détails:
A Beechcraft 200 King Air impacted the terrain shortly after takeoff from runway 18 at Little Rock-Bill and Hillary Clinton National Airport, AR (LIT).
The five occupants died and the aircraft was destroyed.

Sources:
» arkansasonline.com
» nwaonline.com
» thv11.com

METAR Weather report:
17:53 UTC / 11:53 local time:
KLIT 221753Z 21019G27KT 10SM BKN048 OVC060 24/14 A2962 RMK AO2 PK WND 22036/1721 SLP028 T02390144 10250 20206 56017

18:02 UTC / 12:02 local time:
KLIT 221802Z 30022G40KT 2SM -RA SCT036 OVC047 19/13 A2968 RMK AO2 PK WND 30040/1759 WSHFT 1748 RAB00 PRESRR P0000 T01890128


Photos

Add your photo of this accident or aircraft

Plan
Ce plan montre l'aéroport de départ ainsi que la supposée destination du vol. La ligne fixe reliant les deux aéroports n'est pas le plan de vol exact.
La distance entre Little Rock-Bill and Hillary Clinton National Airport, AR et Columbus-John Glenn International Airport, OH est de 1004 km (628 miles).
Accident location: Approximate; accuracy within a few kilometers.

Les informations ci-dessus ne représentent pas l'opinion de la 'Flight Safety Foundation' ou de 'Aviation Safety Network' sur les causes de l'accident. Ces informations prélimimaires sont basées sur les faits tel qu'ils sont connus à ce jour.
languages: languages

Share

Beech King Air

  • 3550+ built
  • 274ème loss
  • 137ème accident fatal
  • le accident 44ème le plus grave (à ce moment là)
  • le accident 44ème le plus grave (en ce moment)
» safety profile

The Aviation Safety Network is an exclusive service provided by:
Quick Links:

CONNECT WITH US: FSF on social media FSF Facebook FSF Twitter FSF Youtube FSF LinkedIn FSF Instagram

©2023 Flight Safety Foundation

1920 Ballenger Av, 4th Fl.
Alexandria, Virginia 22314
www.FlightSafety.org